Time;durP1;ratioP1;P1;durP2;ratioP2;P2;SDS_P1;SDS_P2;PMS_P1;PMS_P2;Temp;Humidity;BMP_temperature;BMP_pressure;BME280_temperature;BME280_humidity;BME280_pressure;Samples;Min_cycle;Max_cycle;Signal;HPM_P1;HPM_P2
2023/07/04 00:01:12;;;;;;;2.87;1.87;;;14.20;93.00;14.20;100149.00;;;;4947478;28;100032;-69
2023/07/04 00:03:41;;;;;;;1.20;1.10;;;14.20;93.30;14.20;100154.00;;;;4950628;28;93008;-68
2023/07/04 00:06:14;;;;;;;1.43;1.20;;;14.20;93.40;14.20;100150.00;;;;4949339;28;93861;-69
2023/07/04 00:08:40;;;;;;;2.50;1.43;;;14.20;93.60;14.20;100150.00;;;;4930168;28;94920;-69
2023/07/04 00:11:07;;;;;;;1.23;1.07;;;14.20;93.60;14.20;100152.00;;;;4969450;28;109394;-70
2023/07/04 00:13:35;;;;;;;4.03;1.57;;;14.20;93.80;14.20;100147.00;;;;4954227;28;95264;-70
2023/07/04 00:16:04;;;;;;;1.50;1.40;;;14.10;93.80;14.20;100135.00;;;;4968050;28;110660;-70
2023/07/04 00:18:29;;;;;;;3.37;1.30;;;14.10;94.00;14.10;100147.00;;;;4968094;28;94157;-70
2023/07/04 00:20:59;;;;;;;2.23;1.57;;;14.10;94.30;14.10;100143.00;;;;4971094;28;93432;-70
2023/07/04 00:23:31;;;;;;;3.53;2.10;;;14.10;94.40;14.10;100146.00;;;;4967168;28;101005;-71
2023/07/04 00:25:57;;;;;;;2.60;1.67;;;14.10;94.60;14.00;100151.00;;;;4972032;28;93974;-71
2023/07/04 00:28:24;;;;;;;1.33;1.23;;;12.90;94.40;14.00;100138.00;;;;4967319;28;122371;-71
2023/07/04 00:30:52;;;;;;;3.17;1.95;;;14.00;94.80;14.00;100150.00;;;;4971126;28;93852;-71
2023/07/04 00:33:20;;;;;;;2.33;1.87;;;13.90;95.10;13.90;100145.00;;;;4971156;28;101931;-71
2023/07/04 00:35:46;;;;;;;2.93;1.50;;;13.90;95.30;13.90;100145.00;;;;4969758;28;92676;-70
2023/07/04 00:38:13;;;;;;;4.50;1.53;;;13.90;95.60;13.90;100147.00;;;;4965660;28;120989;-71
2023/07/04 00:40:39;;;;;;;1.80;1.50;;;13.80;96.00;13.80;100143.00;;;;4967779;28;92771;-72
2023/07/04 00:43:10;;;;;;;1.53;1.43;;;13.80;96.10;13.80;100142.00;;;;4970237;28;106784;-71
2023/07/04 00:45:42;;;;;;;3.03;1.20;;;13.70;96.20;13.70;100142.00;;;;4970158;28;93161;-71
2023/07/04 00:48:13;;;;;;;3.27;1.80;;;13.70;96.30;13.70;100143.00;;;;4968273;28;93268;-70
2023/07/04 00:50:46;;;;;;;6.20;2.17;;;13.70;96.50;13.70;100137.00;;;;4966902;28;92869;-71
2023/07/04 00:53:15;;;;;;;1.40;1.30;;;13.60;96.90;13.60;100140.00;;;;4952879;28;93958;-72
2023/07/04 00:55:46;;;;;;;1.23;1.00;;;13.60;97.20;13.60;100143.00;;;;4931567;28;116547;-71
2023/07/04 00:58:12;;;;;;;2.47;1.27;;;13.60;97.20;13.60;100141.00;;;;4973198;28;92961;-71
2023/07/04 01:00:38;;;;;;;2.20;1.57;;;13.60;97.50;13.60;100146.00;;;;4970796;28;109927;-69
2023/07/04 01:03:08;;;;;;;2.03;1.80;;;13.60;97.70;13.60;100135.00;;;;4954832;28;108518;-71
2023/07/04 01:06:17;;;;;;;5.10;1.57;;;13.50;98.00;13.50;100132.00;;;;4948916;28;92979;-72
2023/07/04 01:08:46;;;;;;;1.30;1.20;;;13.50;98.30;13.50;100135.00;;;;4884790;28;94024;-71
2023/07/04 01:11:25;;;;;;;4.80;2.10;;;13.50;98.50;13.50;100143.00;;;;4926296;28;93138;-71
2023/07/04 01:13:52;;;;;;;1.80;1.47;;;13.50;98.60;13.50;100150.00;;;;4932728;28;92879;-71
2023/07/04 01:16:22;;;;;;;3.87;1.47;;;13.50;98.60;13.50;100138.00;;;;4947128;28;93797;-71
2023/07/04 01:18:53;;;;;;;1.77;1.27;;;13.50;99.10;13.60;100142.00;;;;4930466;28;94991;-71
2023/07/04 01:21:27;;;;;;;2.70;1.40;;;13.50;99.40;13.60;100132.00;;;;4946489;28;100316;-70
2023/07/04 01:24:14;;;;;;;1.27;1.20;;;13.50;99.50;13.60;100140.00;;;;4950271;28;92896;-71
2023/07/04 01:26:46;;;;;;;2.33;1.20;;;13.60;99.50;13.60;100131.00;;;;4945911;28;112960;-70
2023/07/04 01:29:15;;;;;;;2.67;1.90;;;13.50;99.50;13.60;100132.00;;;;4935544;28;93083;-69
2023/07/04 01:31:43;;;;;;;2.33;1.77;;;13.50;99.60;13.60;100128.00;;;;4936463;28;93187;-71
2023/07/04 01:34:09;;;;;;;3.23;1.60;;;13.50;99.70;13.60;100129.00;;;;4931709;28;94005;-71
2023/07/04 01:36:40;;;;;;;4.50;1.83;;;13.50;99.80;13.60;100133.00;;;;4929995;28;121903;-71
2023/07/04 01:39:14;;;;;;;1.63;1.53;;;13.50;99.90;13.60;100129.00;;;;4947195;28;93196;-71
2023/07/04 01:41:47;;;;;;;1.53;1.30;;;13.50;99.90;13.50;100140.00;;;;4950735;28;92929;-71
2023/07/04 01:44:16;;;;;;;1.40;1.20;;;13.50;99.90;13.60;100141.00;;;;4948356;28;92742;-70
2023/07/04 01:46:42;;;;;;;2.17;1.60;;;13.50;99.90;13.60;100143.00;;;;4922863;28;94908;-69
2023/07/04 01:49:19;;;;;;;2.20;1.50;;;13.50;99.90;13.60;100138.00;;;;4950291;28;120732;-69
2023/07/04 01:51:46;;;;;;;2.67;1.93;;;13.50;99.90;13.50;100134.00;;;;4955222;28;103073;-69
2023/07/04 01:54:17;;;;;;;1.80;1.47;;;13.50;99.90;13.50;100136.00;;;;4952669;28;92934;-70
2023/07/04 01:56:47;;;;;;;2.40;1.43;;;13.50;99.90;13.50;100139.00;;;;4943430;28;93554;-70
2023/07/04 01:59:12;;;;;;;8.23;1.47;;;13.50;99.90;13.50;100134.00;;;;4954459;28;93705;-70
2023/07/04 02:01:38;;;;;;;1.57;1.47;;;13.50;99.90;13.50;100140.00;;;;4934815;28;101292;-71
2023/07/04 02:04:04;;;;;;;2.30;1.40;;;13.30;99.90;13.50;100125.00;;;;4932305;28;102014;-71
2023/07/04 02:06:30;;;;;;;2.03;1.27;;;13.50;99.90;13.50;100131.00;;;;4918701;28;95182;-71
2023/07/04 02:08:55;;;;;;;2.60;1.27;;;13.50;99.90;13.60;100131.00;;;;4953295;28;92968;-70
2023/07/04 02:11:21;;;;;;;1.63;1.10;;;13.50;99.90;13.50;100127.00;;;;4946807;28;111196;-71
2023/07/04 02:13:47;;;;;;;1.70;1.33;;;13.50;99.90;13.50;100125.00;;;;4949090;28;108293;-69
2023/07/04 02:16:13;;;;;;;3.03;1.40;;;13.50;99.90;13.50;100131.00;;;;4947967;28;121244;-70
2023/07/04 02:18:38;;;;;;;1.97;1.37;;;13.50;99.90;13.60;100120.00;;;;4950202;28;92896;-71
2023/07/04 02:21:05;;;;;;;2.20;1.77;;;13.50;99.90;13.50;100120.00;;;;4950874;28;111884;-71
2023/07/04 02:23:31;;;;;;;2.77;1.37;;;13.50;99.90;13.50;100118.00;;;;4950448;28;93931;-71
2023/07/04 02:25:57;;;;;;;3.07;1.23;;;13.50;99.90;13.60;100117.00;;;;4948885;28;121395;-70
2023/07/04 02:28:22;;;;;;;2.40;1.70;;;13.50;99.90;13.50;100121.00;;;;4948455;28;122625;-70
2023/07/04 02:30:59;;;;;;;2.47;1.53;;;13.50;99.90;13.50;100121.00;;;;4950449;28;110408;-70
2023/07/04 02:33:25;;;;;;;5.17;1.77;;;13.50;99.90;13.50;100122.00;;;;4944616;28;93393;-71
2023/07/04 02:35:51;;;;;;;2.60;1.37;;;13.50;99.90;13.50;100120.00;;;;4933498;28;93785;-71
2023/07/04 02:38:18;;;;;;;1.67;1.50;;;13.50;99.90;13.50;100118.00;;;;4948515;28;103035;-70
2023/07/04 02:40:45;;;;;;;1.83;1.33;;;13.50;99.90;13.50;100120.00;;;;4952557;28;92052;-70
2023/07/04 02:43:11;;;;;;;2.43;1.43;;;13.50;99.90;13.50;100120.00;;;;4951386;28;93085;-70
2023/07/04 02:45:38;;;;;;;1.47;1.20;;;13.50;99.90;13.50;100117.00;;;;4953078;28;93536;-70
2023/07/04 02:48:04;;;;;;;1.40;1.30;;;13.50;99.90;13.50;100117.00;;;;4950959;28;109985;-70
2023/07/04 02:50:30;;;;;;;1.27;0.97;;;13.50;99.90;13.60;100116.00;;;;4947579;28;103164;-70
2023/07/04 02:52:55;;;;;;;1.60;1.17;;;13.50;99.90;13.60;100115.00;;;;4945476;28;109439;-70
2023/07/04 02:55:21;;;;;;;1.90;1.60;;;13.50;99.90;13.60;100119.00;;;;4947755;28;120837;-69
2023/07/04 02:57:47;;;;;;;3.13;1.07;;;13.60;99.90;13.60;100113.00;;;;4951276;28;119505;-69
2023/07/04 03:00:13;;;;;;;2.80;1.50;;;13.60;99.90;13.70;100114.00;;;;4948535;28;112058;-70
2023/07/04 03:02:38;;;;;;;1.67;1.57;;;13.60;99.90;13.70;100111.00;;;;4951045;28;92847;-69
2023/07/04 03:05:05;;;;;;;1.53;1.37;;;13.60;99.90;13.70;100119.00;;;;4952392;28;121889;-69
2023/07/04 03:07:30;;;;;;;2.80;0.70;;;13.60;99.90;13.70;100116.00;;;;4964143;28;109820;-69
2023/07/04 03:09:56;;;;;;;2.93;1.73;;;13.70;99.90;13.80;100119.00;;;;4968731;28;111932;-69
2023/07/04 03:12:22;;;;;;;3.23;2.00;;;13.70;99.90;13.80;100127.00;;;;4965698;28;105769;-69
2023/07/04 03:14:47;;;;;;;2.10;1.63;;;13.80;99.90;13.90;100128.00;;;;4969711;28;123324;-68
2023/07/04 03:17:13;;;;;;;1.77;0.87;;;13.80;99.90;14.00;100126.00;;;;4971222;28;122714;-69
2023/07/04 03:19:39;;;;;;;0.73;0.67;;;13.90;99.90;14.00;100123.00;;;;4968165;28;95976;-69
2023/07/04 03:22:04;;;;;;;2.23;1.30;;;14.00;99.90;14.10;100126.00;;;;4970182;28;108950;-69
2023/07/04 03:24:31;;;;;;;1.93;0.70;;;14.50;99.90;14.20;100141.00;;;;4952919;28;121697;-69
2023/07/04 03:26:57;;;;;;;0.90;0.60;;;14.10;99.90;14.30;100125.00;;;;4969262;28;93662;-70
2023/07/04 03:29:22;;;;;;;1.33;0.80;;;14.20;99.90;14.30;100132.00;;;;4968730;28;102065;-71
2023/07/04 03:31:48;;;;;;;1.40;1.03;;;14.20;99.90;14.40;100131.00;;;;4972292;28;106994;-69
2023/07/04 03:34:14;;;;;;;1.07;0.70;;;14.30;99.90;14.60;100130.00;;;;4969524;28;93814;-69
2023/07/04 03:36:40;;;;;;;1.00;0.90;;;14.40;99.90;14.70;100141.00;;;;4968654;28;123693;-70
2023/07/04 03:39:05;;;;;;;1.33;0.82;;;14.50;99.90;14.80;100137.00;;;;4972582;28;93333;-70
2023/07/04 03:41:32;;;;;;;0.75;0.75;;;14.70;99.90;14.90;100146.00;;;;4973691;28;93081;-70
2023/07/04 03:44:00;;;;;;;2.20;1.10;;;14.80;99.90;15.10;100152.00;;;;4973772;28;93862;-71
2023/07/04 03:46:26;;;;;;;4.00;1.47;;;14.90;99.90;15.20;100155.00;;;;4967023;28;93265;-71
2023/07/04 03:48:52;;;;;;;0.77;0.68;;;15.00;99.90;15.40;100151.00;;;;4968405;28;103083;-70
2023/07/04 03:51:18;;;;;;;0.80;0.80;;;15.20;99.90;15.50;100147.00;;;;4969356;28;108208;-68
2023/07/04 03:53:44;;;;;;;1.20;1.10;;;15.40;99.90;15.70;100157.00;;;;4969496;28;121833;-71
2023/07/04 03:56:10;;;;;;;1.70;0.90;;;15.50;99.90;15.80;100153.00;;;;4968387;28;122632;-70
2023/07/04 03:58:35;;;;;;;1.45;0.82;;;15.60;99.90;15.90;100156.00;;;;4971023;28;93110;-71
2023/07/04 04:01:04;;;;;;;2.55;0.90;;;15.70;99.90;16.00;100160.00;;;;4970692;28;94243;-71
2023/07/04 04:03:36;;;;;;;1.20;0.73;;;15.90;99.90;16.20;100165.00;;;;4968466;28;93729;-71
2023/07/04 04:06:03;;;;;;;0.60;0.60;;;16.00;99.90;16.30;100165.00;;;;4969219;28;93741;-70
2023/07/04 04:08:29;;;;;;;1.65;0.60;;;16.10;99.90;16.30;100170.00;;;;4969086;28;92877;-69
2023/07/04 04:10:55;;;;;;;0.85;0.73;;;16.20;99.90;16.40;100173.00;;;;4971378;28;109651;-70
2023/07/04 04:13:20;;;;;;;0.43;0.43;;;16.30;99.90;16.50;100174.00;;;;4965691;28;123648;-71
2023/07/04 04:15:47;;;;;;;1.02;0.75;;;16.40;99.90;16.60;100180.00;;;;4968519;28;109796;-69
2023/07/04 04:18:13;;;;;;;1.33;0.70;;;16.40;99.90;16.70;100183.00;;;;4971724;28;92178;-68
2023/07/04 04:20:39;;;;;;;1.83;0.90;;;16.50;99.90;16.80;100172.00;;;;4966820;28;108502;-71
2023/07/04 04:23:05;;;;;;;1.38;0.57;;;16.60;99.90;16.80;100179.00;;;;4967326;28;122864;-71
2023/07/04 04:25:37;;;;;;;4.25;0.73;;;16.70;99.90;16.90;100186.00;;;;4967685;28;94103;-70
2023/07/04 04:28:07;;;;;;;0.60;0.57;;;16.90;99.90;17.00;100186.00;;;;4967370;28;92935;-71
2023/07/04 04:30:34;;;;;;;1.83;1.00;;;16.90;99.90;17.10;100186.00;;;;4973974;28;97330;-72
2023/07/04 04:33:02;;;;;;;3.50;1.05;;;16.90;99.90;17.20;100198.00;;;;4956783;28;92774;-70
2023/07/04 04:35:28;;;;;;;0.90;0.50;;;17.00;99.90;17.30;100191.00;;;;4967083;28;93762;-70
2023/07/04 04:37:54;;;;;;;1.75;0.82;;;17.10;99.90;17.40;100198.00;;;;4968777;28;93134;-70
2023/07/04 04:40:20;;;;;;;1.45;0.80;;;17.20;99.90;17.40;100195.00;;;;4966685;28;107398;-71
2023/07/04 04:42:47;;;;;;;0.52;0.52;;;17.30;99.90;17.50;100197.00;;;;4966829;28;92189;-70
2023/07/04 04:45:14;;;;;;;1.52;0.80;;;17.40;99.90;17.60;100212.00;;;;4971354;28;93030;-71
2023/07/04 04:47:40;;;;;;;1.75;0.88;;;17.40;99.90;17.70;100210.00;;;;4970738;28;92604;-69
2023/07/04 04:50:06;;;;;;;1.85;1.05;;;17.50;99.90;17.70;100213.00;;;;4967867;28;93833;-69
2023/07/04 04:52:32;;;;;;;1.38;0.65;;;17.60;99.90;17.80;100204.00;;;;4968231;28;114377;-68
2023/07/04 04:55:01;;;;;;;0.60;0.60;;;17.70;99.90;17.90;100217.00;;;;4964505;28;122103;-70
2023/07/04 04:57:28;;;;;;;1.80;0.88;;;17.70;99.90;17.90;100216.00;;;;4968936;28;93105;-69
2023/07/04 04:59:56;;;;;;;3.97;0.90;;;17.80;99.90;18.00;100217.00;;;;4968850;28;93717;-69
2023/07/04 05:02:23;;;;;;;0.75;0.65;;;17.90;99.90;18.10;100224.00;;;;4965617;28;94037;-70
2023/07/04 05:04:49;;;;;;;1.35;0.90;;;17.90;99.90;18.10;100218.00;;;;4972130;28;93112;-69
2023/07/04 05:07:14;;;;;;;0.50;0.47;;;18.00;99.90;18.20;100233.00;;;;4966696;28;112251;-71
2023/07/04 05:09:40;;;;;;;0.85;0.77;;;18.00;99.90;18.20;100226.00;;;;4970775;28;107395;-70
2023/07/04 05:12:08;;;;;;;1.55;0.85;;;18.10;99.60;18.30;100227.00;;;;4958850;28;109651;-69
2023/07/04 05:14:34;;;;;;;1.85;0.95;;;18.10;99.50;18.40;100229.00;;;;4959922;28;94276;-69
2023/07/04 05:17:00;;;;;;;0.95;0.85;;;18.20;99.40;18.40;100226.00;;;;4970588;28;110440;-70
2023/07/04 05:19:26;;;;;;;1.30;0.73;;;18.30;99.30;18.50;100233.00;;;;4974129;28;93322;-71
2023/07/04 05:21:51;;;;;;;1.75;0.70;;;18.40;99.20;18.60;100234.00;;;;4971264;28;122452;-71
2023/07/04 05:24:17;;;;;;;4.13;1.13;;;18.40;99.00;18.70;100231.00;;;;4958025;28;121381;-69
2023/07/04 05:26:43;;;;;;;2.53;1.13;;;18.50;98.90;18.80;100236.00;;;;4972660;28;111485;-71
2023/07/04 05:29:08;;;;;;;1.77;0.77;;;18.60;98.80;18.90;100239.00;;;;4955419;28;93328;-71
2023/07/04 05:31:35;;;;;;;1.38;0.80;;;18.70;98.70;18.90;100236.00;;;;4973174;28;109778;-69
2023/07/04 05:34:00;;;;;;;1.52;1.42;;;18.80;98.40;19.00;100241.00;;;;4968586;28;122840;-70
2023/07/04 05:36:30;;;;;;;1.85;0.82;;;18.80;98.10;19.10;100233.00;;;;4971221;28;112438;-71
2023/07/04 05:39:00;;;;;;;0.47;0.40;;;18.90;97.90;19.20;100246.00;;;;4937150;28;93740;-69
2023/07/04 05:41:28;;;;;;;0.65;0.65;;;19.00;97.80;19.20;100243.00;;;;4957918;28;93284;-70
2023/07/04 05:43:56;;;;;;;1.23;0.93;;;19.10;97.60;19.30;100253.00;;;;4972094;28;100192;-70
2023/07/04 05:46:22;;;;;;;1.90;0.95;;;19.20;97.50;19.40;100249.00;;;;4966636;28;93237;-69
2023/07/04 05:48:48;;;;;;;1.17;1.05;;;19.20;97.30;19.50;100243.00;;;;4956093;28;92984;-71
2023/07/04 05:51:16;;;;;;;1.63;1.13;;;19.30;97.30;19.60;100258.00;;;;4969440;28;122662;-70
2023/07/04 05:53:47;;;;;;;2.78;0.95;;;19.50;97.30;19.80;100256.00;;;;4953971;28;95030;-72
2023/07/04 05:56:28;;;;;;;1.55;1.05;;;19.60;96.80;19.90;100253.00;;;;4955569;28;92335;-69
2023/07/04 05:59:00;;;;;;;2.90;1.00;;;19.70;96.70;20.00;100275.00;;;;4958778;28;92899;-69
2023/07/04 06:01:37;;;;;;;1.73;0.90;;;19.80;96.30;20.10;100259.00;;;;4973280;28;94369;-69
2023/07/04 06:04:06;;;;;;;2.47;1.40;;;19.90;95.90;20.20;100262.00;;;;4956535;28;94312;-70
2023/07/04 06:06:35;;;;;;;0.95;0.82;;;20.00;95.60;20.30;100262.00;;;;4955667;28;92918;-70
2023/07/04 06:09:05;;;;;;;1.88;1.15;;;20.10;95.20;20.40;100256.00;;;;4971593;28;93916;-70
2023/07/04 06:11:34;;;;;;;1.63;0.77;;;20.20;94.30;20.50;100267.00;;;;4971271;28;94179;-69
2023/07/04 06:14:05;;;;;;;0.88;0.65;;;20.30;94.40;20.60;100278.00;;;;4969094;28;93107;-69
2023/07/04 06:16:31;;;;;;;1.45;1.02;;;20.40;94.10;20.80;100274.00;;;;4972286;28;92917;-70
2023/07/04 06:18:57;;;;;;;1.95;0.82;;;20.50;93.80;20.90;100272.00;;;;4969793;28;99063;-70
2023/07/04 06:21:24;;;;;;;0.93;0.93;;;20.70;93.80;21.10;100270.00;;;;4961507;28;121876;-69
2023/07/04 06:23:55;;;;;;;5.70;1.52;;;20.90;93.20;21.30;100272.00;;;;4973320;28;93126;-71
2023/07/04 06:26:22;;;;;;;2.20;1.30;;;21.00;92.80;21.40;100273.00;;;;4954747;28;93047;-69
2023/07/04 06:28:50;;;;;;;1.80;1.15;;;21.20;92.00;21.60;100275.00;;;;4969357;28;94934;-68
2023/07/04 06:31:17;;;;;;;3.08;1.67;;;21.40;91.20;21.70;100283.00;;;;4970117;28;93244;-71
2023/07/04 06:33:43;;;;;;;1.55;0.80;;;21.50;90.50;21.80;100289.00;;;;4965301;28;122055;-70
2023/07/04 06:36:11;;;;;;;4.22;1.70;;;21.60;89.80;21.80;100286.00;;;;4970296;28;111692;-69
2023/07/04 06:38:37;;;;;;;1.80;1.38;;;21.70;85.00;21.80;100286.00;;;;4968796;28;92957;-69
2023/07/04 06:41:07;;;;;;;2.15;1.13;;;21.70;82.90;21.80;100296.00;;;;4968331;28;93457;-70
2023/07/04 06:43:34;;;;;;;8.15;2.03;;;21.60;81.60;21.80;100289.00;;;;4966201;28;96282;-69
2023/07/04 06:46:00;;;;;;;4.43;1.83;;;21.60;80.00;21.80;100284.00;;;;4969377;28;92182;-70
2023/07/04 06:48:28;;;;;;;1.85;1.45;;;21.60;80.30;21.90;100295.00;;;;4968043;28;100547;-68
2023/07/04 06:51:01;;;;;;;1.85;1.30;;;21.70;79.60;22.00;100293.00;;;;4969323;28;94094;-70
2023/07/04 06:53:28;;;;;;;2.70;0.93;;;21.80;79.90;22.10;100293.00;;;;4940275;28;95062;-69
2023/07/04 06:56:06;;;;;;;3.40;0.98;;;21.90;80.10;22.20;100273.00;;;;4970570;28;92935;-69
2023/07/04 06:58:35;;;;;;;1.90;1.33;;;22.00;77.00;22.20;100292.00;;;;4951146;28;95474;-70
2023/07/04 07:01:02;;;;;;;2.58;1.38;;;22.10;75.00;22.20;100280.00;;;;4968484;28;110209;-70
2023/07/04 07:03:29;;;;;;;4.53;1.45;;;22.10;74.90;22.20;100297.00;;;;4967205;28;92930;-71
2023/07/04 07:05:55;;;;;;;2.47;1.10;;;22.10;75.20;22.30;100291.00;;;;4957142;28;93155;-70
2023/07/04 07:08:21;;;;;;;3.15;1.20;;;22.10;75.20;22.40;100295.00;;;;4969548;28;92860;-70
2023/07/04 07:10:56;;;;;;;6.32;1.80;;;22.20;74.30;22.40;100296.00;;;;4967449;28;121148;-70
2023/07/04 07:13:22;;;;;;;3.05;1.15;;;22.30;74.00;22.50;100314.00;;;;4968354;28;92759;-71
2023/07/04 07:15:47;;;;;;;1.85;1.27;;;22.30;73.40;22.60;100311.00;;;;4967493;28;107532;-70
2023/07/04 07:18:13;;;;;;;3.30;1.17;;;22.40;72.30;22.70;100308.00;;;;4967687;28;93828;-70
2023/07/04 07:20:38;;;;;;;1.77;0.95;;;22.50;72.50;22.80;100315.00;;;;4969350;28;93235;-71
2023/07/04 07:23:04;;;;;;;2.20;1.13;;;22.60;72.10;22.80;100318.00;;;;4970488;28;123990;-70
2023/07/04 07:25:30;;;;;;;1.77;1.45;;;22.60;71.60;22.80;100322.00;;;;4966851;28;109792;-69
2023/07/04 07:27:57;;;;;;;5.60;1.30;;;22.60;71.70;22.90;100319.00;;;;4970265;28;108881;-71
2023/07/04 07:30:23;;;;;;;1.30;1.20;;;22.70;71.40;22.80;100319.00;;;;4967834;28;113632;-70
2023/07/04 07:32:48;;;;;;;3.70;1.73;;;22.60;70.40;22.80;100316.00;;;;4970403;28;124021;-69
2023/07/04 07:35:14;;;;;;;4.38;1.70;;;22.70;69.40;22.80;100332.00;;;;4968669;28;111043;-70
2023/07/04 07:37:40;;;;;;;2.67;0.88;;;22.70;68.00;22.80;100320.00;;;;4973294;28;92904;-69
2023/07/04 07:40:06;;;;;;;1.65;1.48;;;22.70;66.50;22.90;100316.00;;;;4956567;28;121265;-69
2023/07/04 07:42:32;;;;;;;2.70;1.05;;;22.70;66.00;22.90;100301.00;;;;4966471;28;103060;-70
2023/07/04 07:44:58;;;;;;;0.93;0.70;;;22.80;65.30;23.00;100319.00;;;;4967238;28;93004;-70
2023/07/04 07:47:24;;;;;;;1.52;1.40;;;22.80;65.40;23.10;100318.00;;;;4968767;28;109782;-70
2023/07/04 07:49:50;;;;;;;3.25;1.45;;;22.90;65.40;23.20;100319.00;;;;4967962;28;123138;-71
2023/07/04 07:52:16;;;;;;;2.28;1.10;;;23.00;65.20;23.30;100314.00;;;;4966299;28;123682;-71
2023/07/04 07:54:41;;;;;;;4.05;1.05;;;23.10;65.40;23.40;100315.00;;;;4971187;28;110643;-71
2023/07/04 07:57:07;;;;;;;2.80;1.50;;;23.20;65.60;23.60;100305.00;;;;4970193;28;110056;-71
2023/07/04 07:59:33;;;;;;;1.70;0.98;;;23.40;65.60;23.80;100311.00;;;;4965337;28;122345;-70
2023/07/04 08:01:58;;;;;;;4.22;1.50;;;23.50;63.50;23.70;100296.00;;;;4970705;28;121375;-69
2023/07/04 08:04:25;;;;;;;1.33;1.13;;;23.50;61.60;23.60;100316.00;;;;4966956;28;93334;-71
2023/07/04 08:06:51;;;;;;;1.73;1.25;;;23.50;61.90;23.60;100318.00;;;;4967561;28;93840;-71
2023/07/04 08:09:19;;;;;;;1.25;1.15;;;23.40;62.50;23.70;100315.00;;;;4972170;28;93997;-71
2023/07/04 08:11:45;;;;;;;8.35;1.25;;;23.50;62.70;23.80;100307.00;;;;4969718;28;93535;-71
2023/07/04 08:14:13;;;;;;;2.17;1.08;;;23.70;62.50;24.00;100314.00;;;;4969142;28;94725;-71
2023/07/04 08:16:50;;;;;;;2.15;1.25;;;23.80;61.70;24.20;100316.00;;;;4968084;28;93174;-71
2023/07/04 08:19:18;;;;;;;1.92;1.77;;;23.90;61.60;24.40;100308.00;;;;4934640;28;94544;-71
2023/07/04 08:21:44;;;;;;;4.43;1.42;;;24.10;60.70;24.50;100307.00;;;;4953191;28;94103;-71
2023/07/04 08:24:12;;;;;;;2.30;1.52;;;24.30;60.10;24.50;100309.00;;;;4968378;28;92241;-71
2023/07/04 08:26:45;;;;;;;2.03;1.50;;;24.30;59.90;24.60;100309.00;;;;4970950;28;93039;-71
2023/07/04 08:29:11;;;;;;;2.92;2.00;;;24.40;60.10;24.70;100323.00;;;;4969851;28;93098;-70
2023/07/04 08:31:37;;;;;;;6.28;1.63;;;24.50;58.70;24.60;100318.00;;;;4964690;28;94163;-71
2023/07/04 08:34:05;;;;;;;2.22;1.33;;;24.50;58.90;24.50;100322.00;;;;4964024;28;109601;-71
2023/07/04 08:36:31;;;;;;;4.05;1.80;;;24.40;59.30;24.50;100316.00;;;;4954710;28;92983;-70
2023/07/04 08:38:57;;;;;;;2.55;1.83;;;24.40;58.50;24.50;100324.00;;;;4950729;28;93315;-71
2023/07/04 08:41:43;;;;;;;4.80;2.55;;;24.30;58.00;24.40;100303.00;;;;4952859;28;122178;-70
2023/07/04 08:44:22;;;;;;;2.33;1.35;;;24.30;58.40;24.40;100319.00;;;;4952030;28;92850;-71
2023/07/04 08:46:53;;;;;;;3.17;1.50;;;24.30;58.90;24.60;100318.00;;;;4966433;28;93113;-71
2023/07/04 08:49:35;;;;;;;5.45;1.20;;;24.40;58.60;24.70;100324.00;;;;4970471;28;93136;-70
2023/07/04 08:52:06;;;;;;;5.10;1.80;;;24.50;58.30;24.80;100323.00;;;;4968370;28;93055;-72
2023/07/04 08:54:34;;;;;;;6.43;1.30;;;24.60;58.60;25.00;100324.00;;;;4968094;28;92850;-75
2023/07/04 08:57:13;;;;;;;5.22;2.05;;;24.70;59.00;25.20;100322.00;;;;4947029;28;93914;-76
2023/07/04 08:59:42;;;;;;;3.45;1.98;;;25.00;58.60;25.40;100337.00;;;;4952550;28;93232;-75
2023/07/04 09:03:14;;;;;;;6.55;1.08;;;25.20;57.80;25.50;100318.00;;;;4965719;28;93116;-74
2023/07/04 09:05:49;;;;;;;3.22;1.52;;;25.30;55.50;25.50;100333.00;;;;4950649;28;93306;-77
2023/07/04 09:09:10;;;;;;;1.67;1.20;;;25.20;54.60;25.20;100331.00;;;;4948500;28;103938;-76
2023/07/04 09:11:37;;;;;;;0.90;0.70;;;25.10;54.50;25.00;100333.00;;;;4922395;28;95250;-73
2023/07/04 09:14:33;;;;;;;2.15;1.95;;;24.90;55.30;25.00;100335.00;;;;4943997;28;93506;-76
2023/07/04 09:17:04;;;;;;;2.55;1.95;;;24.80;55.70;25.20;100344.00;;;;4949816;28;92246;-75
2023/07/04 09:19:35;;;;;;;1.52;1.27;;;24.90;56.00;25.30;100335.00;;;;4934178;28;93034;-75
2023/07/04 09:22:06;;;;;;;2.97;1.63;;;25.00;54.00;25.30;100340.00;;;;4945438;28;94150;-76
2023/07/04 09:24:31;;;;;;;2.13;1.20;;;25.10;53.80;25.40;100353.00;;;;4932240;28;94074;-76
2023/07/04 09:26:58;;;;;;;1.90;1.23;;;25.10;53.60;25.50;100338.00;;;;4943248;28;109435;-73
2023/07/04 09:29:25;;;;;;;0.80;0.80;;;25.20;53.40;25.70;100345.00;;;;4950801;28;92934;-73
2023/07/04 09:32:00;;;;;;;1.40;1.00;;;25.40;53.70;25.70;100348.00;;;;4946286;28;93379;-75
2023/07/04 09:34:51;;;;;;;3.33;1.48;;;25.50;53.40;25.90;100344.00;;;;4932408;28;93083;-74
2023/07/04 09:37:19;;;;;;;2.90;1.17;;;25.60;53.00;26.00;100352.00;;;;4944123;28;92916;-76
2023/07/04 09:39:51;;;;;;;2.22;1.48;;;25.70;52.10;26.00;100341.00;;;;4950532;28;92783;-74
2023/07/04 09:42:40;;;;;;;2.03;1.27;;;25.70;51.20;26.00;100343.00;;;;4930544;28;94765;-76
2023/07/04 09:45:11;;;;;;;2.17;1.40;;;25.70;50.80;25.90;100341.00;;;;4927558;28;94071;-75
2023/07/04 09:47:44;;;;;;;3.53;1.63;;;25.70;51.00;26.00;100343.00;;;;4946735;28;92768;-74
2023/07/04 09:50:16;;;;;;;2.47;0.90;;;25.80;51.10;26.00;100355.00;;;;4937103;28;93863;-77
2023/07/04 09:52:42;;;;;;;2.53;1.15;;;25.80;50.20;26.00;100338.00;;;;4951201;28;93245;-76
2023/07/04 09:55:16;;;;;;;2.65;1.35;;;25.70;50.30;25.90;100353.00;;;;4953034;28;92949;-75
2023/07/04 09:57:44;;;;;;;1.75;1.13;;;25.60;50.70;25.80;100342.00;;;;4953535;28;92893;-76
2023/07/04 10:00:21;;;;;;;4.03;1.80;;;25.60;50.10;25.80;100346.00;;;;4916148;28;92774;-76
2023/07/04 10:02:52;;;;;;;5.07;1.83;;;25.60;50.60;25.90;100340.00;;;;4947919;28;93186;-74
2023/07/04 10:05:37;;;;;;;1.92;1.25;;;25.60;50.00;25.90;100346.00;;;;4932428;28;92981;-76
2023/07/04 10:08:07;;;;;;;4.13;1.48;;;25.60;50.20;25.90;100355.00;;;;4966323;28;92376;-75
2023/07/04 10:10:54;;;;;;;3.45;2.13;;;25.60;49.90;25.80;100339.00;;;;4970109;28;92971;-76
2023/07/04 10:13:37;;;;;;;4.32;1.38;;;25.60;49.50;25.80;100334.00;;;;4937651;28;96204;-75
2023/07/04 10:16:22;;;;;;;3.13;1.88;;;25.50;49.90;25.80;100324.00;;;;4942904;28;94978;-74
2023/07/04 10:18:48;;;;;;;2.92;1.55;;;25.60;50.30;25.90;100341.00;;;;4952368;28;92880;-75
2023/07/04 10:21:13;;;;;;;1.95;1.58;;;25.60;49.90;25.90;100337.00;;;;4959198;28;107693;-75
2023/07/04 10:23:39;;;;;;;1.98;1.60;;;25.60;49.80;25.80;100336.00;;;;4950162;28;95261;-74
2023/07/04 10:26:06;;;;;;;2.90;1.70;;;25.60;50.10;25.90;100334.00;;;;4952896;28;123789;-74
2023/07/04 10:28:33;;;;;;;4.65;2.15;;;25.60;50.40;26.00;100331.00;;;;4956670;28;92775;-76
2023/07/04 10:31:14;;;;;;;2.00;1.77;;;25.60;49.70;26.00;100318.00;;;;4943357;28;110152;-74
2023/07/04 10:34:01;;;;;;;2.47;1.80;;;25.70;49.70;25.80;100330.00;;;;4957559;28;92339;-76
2023/07/04 10:36:32;;;;;;;2.53;1.38;;;25.60;49.80;25.80;100333.00;;;;4953108;28;93925;-74
2023/07/04 10:39:06;;;;;;;4.75;1.83;;;25.50;50.30;25.90;100332.00;;;;4951883;28;99474;-75
2023/07/04 10:41:57;;;;;;;2.13;1.55;;;25.50;50.10;26.00;100335.00;;;;4952503;28;93989;-75
2023/07/04 10:44:25;;;;;;;4.85;1.88;;;25.60;49.40;26.20;100330.00;;;;4933769;28;108008;-76
2023/07/04 10:47:04;;;;;;;3.50;1.88;;;25.80;49.40;26.30;100331.00;;;;4967841;28;115100;-77
2023/07/04 10:49:37;;;;;;;4.35;1.88;;;25.90;49.30;26.60;100334.00;;;;4934797;28;92805;-74
2023/07/04 10:52:15;;;;;;;3.75;1.65;;;26.20;49.90;26.90;100336.00;;;;4953949;28;99971;-77
2023/07/04 10:54:40;;;;;;;3.22;2.38;;;26.50;48.80;27.00;100331.00;;;;4963960;28;113790;-74